createdAt,value
2017-09-03T00:02:25.808Z,57.70
2017-09-03T00:04:53.528Z,57.70
2017-09-03T00:07:21.393Z,57.70
2017-09-03T00:09:49.023Z,57.70
2017-09-03T00:12:16.738Z,57.70
2017-09-03T00:14:44.585Z,57.80
2017-09-03T00:17:12.346Z,57.90
2017-09-03T00:19:40.213Z,58.00
2017-09-03T00:22:07.976Z,58.00
2017-09-03T00:24:35.610Z,58.00
2017-09-03T00:27:03.404Z,58.00
2017-09-03T00:29:31.166Z,58.00
2017-09-03T00:31:58.932Z,58.60
2017-09-03T00:34:26.694Z,58.00
2017-09-03T00:36:54.373Z,58.20
2017-09-03T00:39:22.120Z,58.20
2017-09-03T00:41:49.748Z,58.10
2017-09-03T00:44:17.404Z,58.20
2017-09-03T00:46:45.208Z,58.20
2017-09-03T00:49:12.948Z,58.20
2017-09-03T00:51:40.739Z,58.20
2017-09-03T00:54:08.402Z,58.10
2017-09-03T00:56:36.167Z,58.00
2017-09-03T00:59:03.838Z,58.10
2017-09-03T01:01:31.477Z,58.20
2017-09-03T01:03:59.253Z,58.10
2017-09-03T01:06:26.930Z,58.20
2017-09-03T01:08:54.560Z,58.20
2017-09-03T01:11:22.255Z,58.20
2017-09-03T01:13:50.024Z,58.20
2017-09-03T01:16:17.767Z,58.20
2017-09-03T01:18:45.419Z,58.00
2017-09-03T01:21:13.204Z,58.00
2017-09-03T01:23:40.958Z,57.90
2017-09-03T01:26:08.590Z,58.00
2017-09-03T01:28:36.277Z,57.90
2017-09-03T01:31:04.274Z,58.00
2017-09-03T01:33:32.017Z,58.00
2017-09-03T01:35:59.672Z,57.90
2017-09-03T01:38:27.371Z,58.00
2017-09-03T01:40:55.047Z,57.90
2017-09-03T01:43:22.793Z,57.90
2017-09-03T01:45:50.526Z,57.90
2017-09-03T01:48:18.201Z,58.00
2017-09-03T01:50:45.849Z,57.90
2017-09-03T01:53:13.742Z,57.90
2017-09-03T01:55:41.483Z,57.70
2017-09-03T01:58:09.164Z,57.80
2017-09-03T02:00:36.794Z,57.80
2017-09-03T02:03:04.480Z,58.00
2017-09-03T02:05:32.232Z,57.80
2017-09-03T02:07:59.998Z,58.00
2017-09-03T02:10:27.760Z,57.60
2017-09-03T02:12:55.389Z,57.70
2017-09-03T02:15:23.044Z,57.80
2017-09-03T02:17:50.849Z,57.70
2017-09-03T02:20:18.498Z,57.60
2017-09-03T02:22:46.122Z,57.50
2017-09-03T02:25:13.806Z,57.70
2017-09-03T02:27:41.601Z,57.80
2017-09-03T02:30:09.395Z,57.60
2017-09-03T02:32:37.064Z,57.60
2017-09-03T02:35:04.740Z,58.00
2017-09-03T02:37:32.475Z,57.70
2017-09-03T02:40:00.126Z,57.80
2017-09-03T02:42:27.762Z,57.40
2017-09-03T02:44:55.434Z,57.50
2017-09-03T02:47:23.052Z,57.60
2017-09-03T02:49:50.696Z,57.50
2017-09-03T02:52:18.456Z,57.40
2017-09-03T02:54:46.719Z,58.20
2017-09-03T02:57:14.375Z,57.60
2017-09-03T02:59:41.991Z,57.40
2017-09-03T03:02:09.789Z,57.60
2017-09-03T03:04:37.401Z,57.60
2017-09-03T03:07:05.067Z,57.50
2017-09-03T03:09:32.700Z,57.60
2017-09-03T03:12:00.359Z,57.60
2017-09-03T03:14:27.985Z,57.70
2017-09-03T03:16:55.665Z,57.60
2017-09-03T03:19:23.315Z,57.60
2017-09-03T03:21:50.980Z,57.80
2017-09-03T03:24:18.638Z,57.80
2017-09-03T03:26:46.405Z,57.70
2017-09-03T03:29:14.085Z,57.50
2017-09-03T03:31:42.650Z,57.70
2017-09-03T03:34:10.330Z,57.40
2017-09-03T03:36:37.960Z,57.60
2017-09-03T03:39:05.744Z,57.50
2017-09-03T03:41:33.421Z,57.50
2017-09-03T03:44:01.161Z,57.60
2017-09-03T03:46:28.928Z,57.80
2017-09-03T03:48:56.579Z,57.80
2017-09-03T03:51:24.272Z,57.60
2017-09-03T03:53:51.898Z,57.70
2017-09-03T03:56:19.604Z,57.70
2017-09-03T03:58:47.382Z,57.80
2017-09-03T04:01:15.013Z,57.70
2017-09-03T04:03:42.644Z,57.60
2017-09-03T04:06:10.314Z,57.80
2017-09-03T04:08:37.987Z,57.60
2017-09-03T04:11:05.673Z,57.70
2017-09-03T04:13:33.622Z,57.70
2017-09-03T04:16:01.405Z,57.70
2017-09-03T04:18:29.024Z,57.80
2017-09-03T04:20:56.726Z,57.60
2017-09-03T04:23:24.496Z,57.60
2017-09-03T04:25:52.144Z,57.70
2017-09-03T04:28:19.810Z,57.70
2017-09-03T04:30:47.558Z,57.70
2017-09-03T04:33:15.528Z,58.00
2017-09-03T04:35:43.290Z,57.90
2017-09-03T04:38:10.961Z,57.80
2017-09-03T04:40:38.638Z,57.70
2017-09-03T04:43:06.306Z,57.70
2017-09-03T04:45:34.057Z,57.70
2017-09-03T04:48:01.803Z,57.70
2017-09-03T04:50:29.572Z,57.80
2017-09-03T04:52:57.276Z,57.90
2017-09-03T04:55:24.928Z,57.70
2017-09-03T04:57:52.589Z,57.80
2017-09-03T05:00:20.227Z,57.80
2017-09-03T05:02:47.895Z,57.70
2017-09-03T05:05:15.666Z,57.80
2017-09-03T05:07:43.327Z,57.80
2017-09-03T05:10:10.983Z,58.00
2017-09-03T05:12:38.836Z,58.20
2017-09-03T05:15:06.497Z,58.00
2017-09-03T05:17:34.142Z,58.10
2017-09-03T05:20:01.823Z,58.20
2017-09-03T05:22:29.486Z,58.20
2017-09-03T05:24:57.163Z,58.50
2017-09-03T05:27:24.930Z,58.50
2017-09-03T05:29:52.598Z,58.70
2017-09-03T05:32:20.350Z,58.80
2017-09-03T05:34:48.036Z,58.80
2017-09-03T05:37:15.876Z,58.90
2017-09-03T05:39:43.519Z,59.00
2017-09-03T05:42:11.288Z,59.20
2017-09-03T05:44:38.952Z,59.30
2017-09-03T05:47:06.613Z,59.40
2017-09-03T05:49:34.290Z,59.40
2017-09-03T05:52:02.056Z,59.60
2017-09-03T05:54:29.754Z,59.60
2017-09-03T05:56:57.487Z,59.70
2017-09-03T05:59:25.330Z,59.90
2017-09-03T06:01:52.994Z,59.80
2017-09-03T06:04:20.756Z,60.20
2017-09-03T06:06:48.519Z,60.50
2017-09-03T06:09:16.179Z,60.70
2017-09-03T06:11:43.847Z,60.90
2017-09-03T06:14:11.521Z,61.00
2017-09-03T06:16:39.177Z,61.30
2017-09-03T06:19:06.956Z,61.60
2017-09-03T06:21:34.699Z,61.90
2017-09-03T06:24:02.460Z,62.10
2017-09-03T06:26:30.448Z,62.10
2017-09-03T06:28:58.294Z,62.40
2017-09-03T06:31:25.968Z,62.80
2017-09-03T06:33:53.649Z,63.00
2017-09-03T06:36:21.283Z,63.10
2017-09-03T06:38:48.940Z,63.20
2017-09-03T06:41:16.588Z,63.00
2017-09-03T06:43:44.246Z,63.30
2017-09-03T06:46:12.078Z,63.50
2017-09-03T06:48:39.814Z,64.00
2017-09-03T06:51:07.487Z,64.40
2017-09-03T06:53:35.155Z,64.20
2017-09-03T06:56:02.794Z,64.10
2017-09-03T06:58:30.653Z,64.00
2017-09-03T07:00:58.515Z,64.10
2017-09-03T07:03:26.280Z,64.10
2017-09-03T07:05:53.950Z,64.50
2017-09-03T07:08:21.614Z,64.30
2017-09-03T07:10:49.282Z,64.00
2017-09-03T07:13:16.919Z,64.70
2017-09-03T07:15:44.793Z,63.90
2017-09-03T07:18:12.429Z,64.40
2017-09-03T07:20:40.116Z,64.60
2017-09-03T07:23:07.753Z,64.70
2017-09-03T07:25:35.548Z,65.20
2017-09-03T07:28:03.410Z,65.90
2017-09-03T07:30:31.479Z,65.80
2017-09-03T07:32:59.254Z,65.10
2017-09-03T07:35:27.010Z,64.50
2017-09-03T07:37:54.773Z,64.70
2017-09-03T07:40:22.552Z,64.80
2017-09-03T07:42:50.403Z,65.60
2017-09-03T07:45:18.288Z,65.30
2017-09-03T07:47:45.980Z,65.10
2017-09-03T07:50:13.720Z,65.10
2017-09-03T07:52:41.529Z,64.80
2017-09-03T07:55:09.327Z,64.70
2017-09-03T07:57:36.980Z,65.40
2017-09-03T08:00:04.649Z,64.80
2017-09-03T08:02:32.313Z,64.90
2017-09-03T08:05:00.180Z,64.50
2017-09-03T08:07:27.840Z,64.60
2017-09-03T08:09:55.605Z,64.60
2017-09-03T08:12:23.373Z,64.10
2017-09-03T08:14:51.135Z,64.30
2017-09-03T08:17:18.936Z,64.60
2017-09-03T08:19:46.590Z,64.10
2017-09-03T08:22:14.360Z,64.40
2017-09-03T08:24:42.093Z,64.20
2017-09-03T08:27:09.876Z,63.90
2017-09-03T08:29:37.735Z,63.10
2017-09-03T08:32:05.486Z,62.20
2017-09-03T08:34:33.132Z,63.10
2017-09-03T08:37:00.849Z,63.10
2017-09-03T08:39:28.678Z,62.30
2017-09-03T08:41:56.308Z,61.50
2017-09-03T08:44:24.063Z,62.50
2017-09-03T08:46:51.686Z,61.40
2017-09-03T08:49:19.446Z,61.10
2017-09-03T08:51:47.205Z,61.00
2017-09-03T08:54:14.956Z,61.30
2017-09-03T08:56:42.584Z,60.50
2017-09-03T08:59:10.212Z,59.80
2017-09-03T09:01:37.882Z,60.80
2017-09-03T09:04:05.508Z,59.40
2017-09-03T09:06:33.297Z,59.40
2017-09-03T09:09:00.975Z,59.70
2017-09-03T09:11:28.712Z,59.80
2017-09-03T09:13:56.452Z,58.30
2017-09-03T09:16:24.129Z,58.60
2017-09-03T09:18:51.784Z,58.90
2017-09-03T09:21:19.459Z,59.80
2017-09-03T09:23:47.115Z,59.50
2017-09-03T09:26:14.750Z,58.00
2017-09-03T09:28:42.481Z,58.90
2017-09-03T09:31:10.228Z,59.40
2017-09-03T09:33:37.963Z,58.80
2017-09-03T09:36:05.584Z,58.30
2017-09-03T09:38:33.290Z,58.60
2017-09-03T09:41:00.947Z,58.80
2017-09-03T09:43:28.572Z,58.90
2017-09-03T09:45:56.256Z,58.90
2017-09-03T09:48:23.920Z,59.10
2017-09-03T09:50:51.808Z,58.70
2017-09-03T09:53:19.424Z,59.00
2017-09-03T09:55:47.175Z,57.80
2017-09-03T09:58:14.856Z,58.00
2017-09-03T10:00:42.512Z,56.60
2017-09-03T10:03:10.171Z,55.60
2017-09-03T10:05:37.838Z,55.10
2017-09-03T10:08:05.520Z,55.00
2017-09-03T10:10:33.180Z,55.30
2017-09-03T10:13:00.826Z,54.30
2017-09-03T10:15:28.454Z,54.20
2017-09-03T10:17:56.187Z,54.10
2017-09-03T10:20:23.818Z,54.40
2017-09-03T10:22:51.473Z,53.60
2017-09-03T10:25:19.162Z,53.00
2017-09-03T10:27:46.830Z,54.00
2017-09-03T10:30:14.461Z,53.80
2017-09-03T10:32:42.086Z,52.80
2017-09-03T10:35:09.773Z,52.90
2017-09-03T10:37:37.435Z,53.50
2017-09-03T10:40:05.089Z,53.60
2017-09-03T10:42:32.725Z,54.10
2017-09-03T10:45:00.380Z,54.30
2017-09-03T10:47:28.011Z,55.00
2017-09-03T10:49:55.663Z,54.70
2017-09-03T10:52:23.359Z,53.50
2017-09-03T10:54:50.972Z,52.00
2017-09-03T10:57:18.633Z,50.90
2017-09-03T10:59:46.431Z,50.60
2017-09-03T11:02:14.214Z,50.40
2017-09-03T11:04:42.329Z,50.60
2017-09-03T11:07:10.133Z,49.10
2017-09-03T11:09:37.889Z,49.60
2017-09-03T11:12:05.537Z,50.00
2017-09-03T11:14:33.314Z,49.90
2017-09-03T11:17:00.976Z,52.10
2017-09-03T11:19:28.704Z,51.90
2017-09-03T11:21:56.649Z,51.30
2017-09-03T11:24:24.283Z,50.40
2017-09-03T11:26:51.950Z,49.60
2017-09-03T11:29:19.610Z,49.90
2017-09-03T11:31:47.244Z,48.70
2017-09-03T11:34:14.965Z,47.90
2017-09-03T11:36:42.606Z,48.60
2017-09-03T11:39:10.226Z,51.60
2017-09-03T11:41:37.869Z,51.80
2017-09-03T11:44:05.569Z,51.30
2017-09-03T11:46:33.200Z,50.80
2017-09-03T11:49:00.912Z,50.60
2017-09-03T11:51:28.566Z,52.50
2017-09-03T11:53:56.227Z,51.80
2017-09-03T11:56:23.989Z,51.80
2017-09-03T11:58:51.649Z,51.50
2017-09-03T12:01:19.332Z,51.60
2017-09-03T12:03:47.080Z,51.30
2017-09-03T12:06:14.737Z,50.80
2017-09-03T12:08:42.384Z,47.00
2017-09-03T12:11:10.084Z,48.50
2017-09-03T12:13:37.719Z,47.40
2017-09-03T12:16:05.372Z,48.00
2017-09-03T12:18:33.061Z,49.20
2017-09-03T12:21:00.700Z,45.90
2017-09-03T12:23:28.348Z,44.60
2017-09-03T12:25:56.024Z,43.90
2017-09-03T12:28:23.651Z,45.40
2017-09-03T12:30:51.330Z,46.60
2017-09-03T12:33:18.970Z,45.00
2017-09-03T12:35:46.663Z,45.70
2017-09-03T12:38:14.302Z,46.20
2017-09-03T12:40:42.094Z,48.50
2017-09-03T12:43:09.965Z,48.60
2017-09-03T12:45:37.606Z,49.00
2017-09-03T12:48:05.288Z,47.70
2017-09-03T12:50:32.944Z,44.00
2017-09-03T12:53:00.709Z,46.10
2017-09-03T12:55:28.337Z,46.80
2017-09-03T12:57:55.965Z,45.20
2017-09-03T13:00:23.642Z,44.30
2017-09-03T13:02:51.390Z,44.40
2017-09-03T13:05:19.047Z,45.70
2017-09-03T13:07:46.684Z,44.50
2017-09-03T13:10:14.347Z,45.00
2017-09-03T13:12:41.956Z,44.50
2017-09-03T13:15:09.622Z,44.90
2017-09-03T13:17:37.332Z,46.40
2017-09-03T13:20:04.987Z,45.70
2017-09-03T13:22:32.754Z,45.40
2017-09-03T13:25:00.387Z,45.70
2017-09-03T13:27:28.044Z,45.10
2017-09-03T13:29:55.671Z,46.40
2017-09-03T13:32:23.302Z,46.30
2017-09-03T13:34:50.971Z,48.10
2017-09-03T13:37:18.617Z,47.50
2017-09-03T13:39:46.314Z,47.60
2017-09-03T13:42:13.961Z,47.10
2017-09-03T13:44:41.602Z,47.00
2017-09-03T13:47:09.275Z,48.20
2017-09-03T13:49:36.916Z,47.70
2017-09-03T13:52:04.576Z,47.90
2017-09-03T13:54:32.211Z,47.80
2017-09-03T13:57:00.024Z,46.30
2017-09-03T13:59:27.685Z,46.40
2017-09-03T14:01:55.370Z,46.20
2017-09-03T14:04:23.039Z,46.60
2017-09-03T14:06:50.721Z,45.90
2017-09-03T14:09:18.455Z,45.10
2017-09-03T14:11:46.065Z,45.30
2017-09-03T14:14:13.715Z,45.50
2017-09-03T14:16:41.386Z,44.60
2017-09-03T14:19:09.076Z,43.00
2017-09-03T14:21:36.728Z,44.30
2017-09-03T14:24:04.504Z,46.30
2017-09-03T14:26:32.267Z,44.40
2017-09-03T14:28:59.883Z,44.60
2017-09-03T14:31:28.283Z,49.00
2017-09-03T14:33:55.950Z,49.00
2017-09-03T14:36:23.584Z,47.00
2017-09-03T14:38:51.313Z,47.50
2017-09-03T14:41:18.989Z,47.60
2017-09-03T14:43:46.670Z,47.40
2017-09-03T14:46:14.327Z,46.50
2017-09-03T14:48:42.064Z,47.50
2017-09-03T14:51:09.718Z,45.70
2017-09-03T14:53:37.355Z,46.20
2017-09-03T14:56:05.039Z,45.30
2017-09-03T14:58:32.672Z,47.20
2017-09-03T15:01:00.383Z,45.80
2017-09-03T15:03:28.039Z,47.60
2017-09-03T15:05:55.693Z,46.00
2017-09-03T15:08:23.340Z,47.80
2017-09-03T15:10:50.976Z,48.10
2017-09-03T15:13:18.646Z,47.80
2017-09-03T15:15:46.309Z,46.20
2017-09-03T15:18:13.955Z,47.90
2017-09-03T15:20:41.607Z,48.30
2017-09-03T15:23:09.330Z,47.40
2017-09-03T15:25:36.998Z,46.30
2017-09-03T15:28:04.627Z,45.10
2017-09-03T15:30:32.281Z,45.90
2017-09-03T15:33:00.068Z,48.10
2017-09-03T15:35:27.717Z,48.00
2017-09-03T15:37:55.359Z,46.50
2017-09-03T15:40:23.026Z,45.70
2017-09-03T15:42:50.721Z,45.50
2017-09-03T15:45:18.381Z,45.10
2017-09-03T15:47:46.009Z,46.60
2017-09-03T15:50:13.689Z,46.60
2017-09-03T15:52:41.323Z,46.70
2017-09-03T15:55:08.999Z,46.10
2017-09-03T15:57:36.636Z,46.50
2017-09-03T16:00:04.306Z,46.40
2017-09-03T16:02:32.001Z,46.20
2017-09-03T16:04:59.763Z,46.20
2017-09-03T16:07:27.457Z,46.30
2017-09-03T16:09:55.224Z,47.30
2017-09-03T16:12:22.960Z,48.00
2017-09-03T16:14:50.719Z,46.20
2017-09-03T16:19:47.445Z,46.20
2017-09-03T16:22:15.081Z,46.90
2017-09-03T16:24:42.761Z,47.40
2017-09-03T16:27:10.444Z,46.90
2017-09-03T16:29:38.098Z,46.60
2017-09-03T16:32:05.800Z,46.50
2017-09-03T16:34:33.659Z,46.10
2017-09-03T16:37:01.389Z,46.90
2017-09-03T16:39:29.104Z,46.20
2017-09-03T16:41:56.866Z,46.10
2017-09-03T16:44:24.534Z,46.10
2017-09-03T16:46:52.192Z,46.20
2017-09-03T16:49:19.895Z,46.10
2017-09-03T16:51:47.559Z,46.10
2017-09-03T16:54:15.245Z,46.30
2017-09-03T16:56:43.019Z,46.70
2017-09-03T16:59:10.668Z,46.80
2017-09-03T17:01:38.355Z,46.80
2017-09-03T17:04:06.217Z,47.10
2017-09-03T17:06:34.078Z,47.00
2017-09-03T17:09:01.951Z,47.20
2017-09-03T17:11:29.712Z,47.60
2017-09-03T17:13:57.562Z,47.60
2017-09-03T17:16:25.275Z,47.50
2017-09-03T17:18:52.953Z,47.60
2017-09-03T17:21:20.616Z,48.10
2017-09-03T17:23:48.435Z,47.90
2017-09-03T17:26:16.107Z,48.00
2017-09-03T17:28:43.774Z,47.90
2017-09-03T17:31:16.233Z,47.80
2017-09-03T17:33:43.918Z,48.00
2017-09-03T17:36:16.205Z,48.10
2017-09-03T17:38:44.673Z,48.70
2017-09-03T17:41:14.862Z,48.70
2017-09-03T17:43:43.452Z,48.70
2017-09-03T17:46:16.745Z,49.00
2017-09-03T17:48:44.613Z,49.00
2017-09-03T17:51:12.404Z,48.80
2017-09-03T17:53:41.166Z,49.10
2017-09-03T17:56:09.243Z,49.20
2017-09-03T17:58:37.105Z,49.40
2017-09-03T18:01:04.822Z,49.60
2017-09-03T18:03:33.455Z,49.80
2017-09-03T18:06:01.223Z,49.70
2017-09-03T18:08:28.905Z,49.80
2017-09-03T18:10:56.751Z,49.90
2017-09-03T18:13:24.620Z,49.80
2017-09-03T18:15:52.304Z,49.80
2017-09-03T18:18:19.979Z,49.80
2017-09-03T18:20:47.710Z,49.80
2017-09-03T18:23:15.423Z,49.80
2017-09-03T18:25:43.856Z,49.90
2017-09-03T18:28:11.568Z,49.90
2017-09-03T18:30:39.251Z,49.90
2017-09-03T18:33:06.945Z,50.20
2017-09-03T18:35:35.459Z,50.40
2017-09-03T18:38:04.970Z,50.90
2017-09-03T18:40:35.457Z,51.00
2017-09-03T18:43:03.224Z,50.50
2017-09-03T18:45:30.993Z,50.60
2017-09-03T18:47:58.852Z,50.70
2017-09-03T18:50:27.334Z,50.80
2017-09-03T18:53:05.805Z,51.10
2017-09-03T18:55:33.468Z,51.10
2017-09-03T18:58:03.822Z,51.10
2017-09-03T19:00:32.449Z,51.20
2017-09-03T19:03:03.993Z,51.30
2017-09-03T19:05:31.654Z,51.70
2017-09-03T19:07:59.335Z,51.60
2017-09-03T19:10:27.026Z,51.60
2017-09-03T19:12:54.701Z,52.30
2017-09-03T19:15:22.496Z,51.50
2017-09-03T19:17:50.380Z,51.80
2017-09-03T19:20:18.124Z,51.90
2017-09-03T19:22:45.997Z,52.00
2017-09-03T19:25:13.790Z,52.10
2017-09-03T19:27:41.475Z,52.10
2017-09-03T19:30:09.127Z,52.20
2017-09-03T19:32:36.818Z,52.30
2017-09-03T19:35:04.621Z,52.30
2017-09-03T19:37:32.311Z,52.50
2017-09-03T19:39:59.974Z,52.60
2017-09-03T19:42:27.682Z,52.70
2017-09-03T19:44:55.347Z,52.60
2017-09-03T19:47:23.133Z,52.70
2017-09-03T19:49:50.894Z,52.70
2017-09-03T19:52:18.765Z,52.80
2017-09-03T19:54:46.466Z,53.00
2017-09-03T19:57:14.161Z,53.10
2017-09-03T19:59:41.844Z,52.90
2017-09-03T20:02:10.079Z,52.90
2017-09-03T20:04:37.759Z,53.00
2017-09-03T20:07:05.407Z,53.10
2017-09-03T20:09:33.126Z,53.30
2017-09-03T20:12:00.888Z,53.00
2017-09-03T20:14:28.715Z,53.00
2017-09-03T20:16:56.435Z,53.00
2017-09-03T20:19:24.144Z,53.00
2017-09-03T20:21:52.073Z,53.20
2017-09-03T20:24:20.023Z,53.30
2017-09-03T20:26:47.995Z,53.40
2017-09-03T20:29:15.816Z,53.40
2017-09-03T20:32:07.053Z,53.40
2017-09-03T20:34:34.980Z,53.50
2017-09-03T20:37:02.733Z,53.50
2017-09-03T20:39:30.512Z,53.60
2017-09-03T20:41:58.295Z,53.70
2017-09-03T20:44:26.047Z,53.60
2017-09-03T20:46:53.867Z,53.80
2017-09-03T20:49:21.658Z,53.80
2017-09-03T20:51:49.383Z,53.80
2017-09-03T20:54:17.153Z,53.90
2017-09-03T20:56:44.849Z,54.00
2017-09-03T20:59:12.781Z,54.10
2017-09-03T21:01:40.523Z,54.40
2017-09-03T21:04:08.309Z,54.40
2017-09-03T21:06:36.004Z,54.20
2017-09-03T21:09:03.738Z,54.30
2017-09-03T21:11:31.513Z,54.20
2017-09-03T21:13:59.260Z,54.40
2017-09-03T21:16:27.033Z,54.30
2017-09-03T21:18:54.757Z,54.40
2017-09-03T21:21:22.452Z,54.40
2017-09-03T21:23:50.144Z,54.40
2017-09-03T21:26:17.882Z,54.60
2017-09-03T21:28:45.594Z,54.60
2017-09-03T21:31:13.314Z,54.60
2017-09-03T21:33:41.035Z,54.80
2017-09-03T21:41:54.642Z,54.80
2017-09-03T21:44:22.385Z,55.00
2017-09-03T21:46:50.129Z,55.00
2017-09-03T21:49:17.998Z,55.30
2017-09-03T21:51:45.875Z,55.10
2017-09-03T21:54:13.748Z,55.10
2017-09-03T21:56:41.528Z,55.20
2017-09-03T21:59:09.440Z,55.30
2017-09-03T22:01:37.548Z,55.20
2017-09-03T22:04:05.414Z,55.20
2017-09-03T22:06:33.329Z,55.20
2017-09-03T22:09:01.143Z,55.30
2017-09-03T22:11:28.914Z,55.80
2017-09-03T22:13:56.672Z,55.80
2017-09-03T22:16:24.542Z,55.80
2017-09-03T22:18:52.299Z,55.80
2017-09-03T22:21:20.176Z,55.70
2017-09-03T22:23:47.848Z,55.70
2017-09-03T22:26:15.574Z,55.70
2017-09-03T22:28:43.237Z,55.60
2017-09-03T22:31:10.912Z,55.70
2017-09-03T22:33:38.591Z,55.80
2017-09-03T22:36:06.305Z,55.70
2017-09-03T22:38:34.050Z,55.20
2017-09-03T22:41:01.765Z,55.20
2017-09-03T22:43:29.398Z,55.60
2017-09-03T22:45:57.054Z,55.90
2017-09-03T22:48:24.757Z,56.00
2017-09-03T22:50:52.425Z,56.10
2017-09-03T22:53:20.100Z,56.00
2017-09-03T22:55:47.805Z,55.60
2017-09-03T22:58:15.468Z,55.80
2017-09-03T23:00:43.124Z,55.90
2017-09-03T23:03:10.859Z,55.80
2017-09-03T23:05:38.503Z,56.00
2017-09-03T23:08:06.179Z,56.10
2017-09-03T23:10:33.872Z,56.20
2017-09-03T23:13:01.557Z,56.20
2017-09-03T23:15:29.231Z,56.00
2017-09-03T23:17:57.018Z,55.80
2017-09-03T23:20:24.784Z,56.20
2017-09-03T23:22:52.471Z,56.30
2017-09-03T23:25:20.198Z,56.60
2017-09-03T23:27:47.835Z,56.40
2017-09-03T23:30:15.488Z,56.00
2017-09-03T23:32:43.193Z,56.10
2017-09-03T23:35:10.835Z,56.40
2017-09-03T23:37:38.505Z,56.30
2017-09-03T23:40:06.389Z,57.00
2017-09-03T23:42:34.158Z,56.30
2017-09-03T23:45:01.831Z,56.30
2017-09-03T23:47:29.681Z,56.50
2017-09-03T23:49:57.446Z,56.40
2017-09-03T23:52:25.209Z,56.30
2017-09-03T23:54:53.078Z,56.40
2017-09-03T23:57:20.842Z,56.40
2017-09-03T23:59:48.715Z,56.80
